createdAt,value
2022-11-23T00:04:12.891Z,95923.28
2022-11-23T00:09:14.613Z,95923.81
2022-11-23T00:14:16.300Z,95918.41
2022-11-23T00:19:18.016Z,95922.16
2022-11-23T00:24:19.733Z,95929.22
2022-11-23T00:29:21.425Z,95927.59
2022-11-23T00:34:23.064Z,95928.72
2022-11-23T00:39:26.204Z,95935.22
2022-11-23T00:51:31.684Z,95929.25
2022-11-23T00:56:34.981Z,95928.16
2022-11-23T01:01:39.700Z,95928.69
2022-11-23T01:06:43.225Z,95920.25
2022-11-23T01:11:45.455Z,95922.72
2022-11-23T01:16:47.427Z,95930.53
2022-11-23T01:21:49.584Z,95931.34
2022-11-23T01:26:53.395Z,95933.19
2022-11-23T01:31:55.489Z,95934.50
2022-11-23T01:36:57.195Z,95932.59
2022-11-23T01:42:06.278Z,95945.91
2022-11-23T01:47:09.521Z,95952.38
2022-11-23T01:52:23.787Z,95954.56
2022-11-23T01:57:33.616Z,95963.28
2022-11-23T02:02:38.752Z,95969.00
2022-11-23T02:07:42.190Z,95973.06
2022-11-23T02:12:43.969Z,95970.31
2022-11-23T02:17:47.393Z,95978.47
2022-11-23T02:22:59.087Z,95976.75
2022-11-23T02:28:01.716Z,95976.72
2022-11-23T02:33:06.033Z,95975.06
2022-11-23T02:38:07.811Z,95969.66
2022-11-23T02:43:09.510Z,95966.41
2022-11-23T02:48:11.452Z,95969.41
2022-11-23T02:53:14.239Z,95966.16
2022-11-23T02:58:15.909Z,95965.88
2022-11-23T03:03:17.765Z,95975.06
2022-11-23T03:08:19.423Z,95971.00
2022-11-23T03:13:21.514Z,95978.88
2022-11-23T03:18:23.900Z,95980.47
2022-11-23T03:23:25.669Z,95980.94
2022-11-23T03:28:28.351Z,95981.41
2022-11-23T03:33:31.255Z,95976.72
2022-11-23T03:38:33.469Z,95971.53
2022-11-23T03:43:35.470Z,95980.31
2022-11-23T03:48:37.351Z,95962.69
2022-11-23T03:53:39.438Z,95982.19
2022-11-23T03:58:41.210Z,95970.75
2022-11-23T04:03:47.079Z,95974.75
2022-11-23T04:09:01.720Z,95973.88
2022-11-23T04:14:20.957Z,95967.88
2022-11-23T04:19:23.319Z,95972.72
2022-11-23T04:24:25.122Z,95964.59
2022-11-23T04:29:30.083Z,95969.97
2022-11-23T04:34:32.185Z,95967.25
2022-11-23T04:39:37.633Z,95971.03
2022-11-23T04:44:52.252Z,95968.88
2022-11-23T04:49:54.637Z,95970.25
2022-11-23T04:54:56.513Z,95966.44
2022-11-23T04:59:59.124Z,95965.41
2022-11-23T05:05:02.979Z,95965.50
2022-11-23T05:10:05.428Z,95962.06
2022-11-23T05:15:13.472Z,95965.34
2022-11-23T05:20:16.207Z,95953.47
2022-11-23T05:25:23.728Z,95957.78
2022-11-23T05:30:33.410Z,95959.56
2022-11-23T05:35:36.281Z,95953.34
2022-11-23T05:40:38.456Z,95954.53
2022-11-23T05:45:40.637Z,95948.69
2022-11-23T05:50:43.700Z,95953.59
2022-11-23T05:56:02.271Z,95952.53
2022-11-23T06:01:09.232Z,95947.63
2022-11-23T06:06:13.069Z,95950.25
2022-11-23T06:11:17.725Z,95940.00
2022-11-23T06:16:19.501Z,95948.16
2022-11-23T06:21:48.980Z,95941.31
2022-11-23T06:26:55.319Z,95947.16
2022-11-23T06:31:57.435Z,95953.16
2022-11-23T06:36:59.257Z,95947.72
2022-11-23T06:42:16.879Z,95964.06
2022-11-23T06:47:26.465Z,95960.78
2022-11-23T06:52:29.036Z,95965.66
2022-11-23T06:57:30.978Z,95966.44
2022-11-23T07:02:32.992Z,95968.75
2022-11-23T07:07:35.758Z,95977.09
2022-11-23T07:12:45.307Z,95983.81
2022-11-23T07:17:49.334Z,95984.34
2022-11-23T07:23:01.534Z,95990.28
2022-11-23T07:28:05.860Z,95997.94
2022-11-23T07:33:10.025Z,95996.88
2022-11-23T07:38:12.858Z,96000.16
2022-11-23T07:43:14.749Z,96009.34
2022-11-23T07:48:16.615Z,96012.63
2022-11-23T07:53:18.368Z,96018.09
2022-11-23T07:58:20.087Z,96018.63
2022-11-23T08:03:30.122Z,96025.72
2022-11-23T08:08:32.280Z,96032.25
2022-11-23T08:13:40.154Z,96027.09
2022-11-23T08:18:41.984Z,96029.88
2022-11-23T08:23:43.657Z,96033.16
2022-11-23T08:28:45.394Z,96034.50
2022-11-23T08:33:47.259Z,96036.47
2022-11-23T08:38:51.374Z,96028.66
2022-11-23T08:43:53.036Z,96028.13
2022-11-23T08:48:54.839Z,96018.91
2022-11-23T08:53:56.623Z,96023.25
2022-11-23T08:58:58.369Z,96015.69
2022-11-23T09:04:00.470Z,96030.09
2022-11-23T09:09:02.799Z,96029.81
2022-11-23T09:14:04.456Z,96018.94
2022-11-23T09:19:08.107Z,96015.16
2022-11-23T09:24:13.206Z,96023.28
2022-11-23T09:29:14.961Z,96009.94
2022-11-23T09:34:16.753Z,96012.66
2022-11-23T09:39:18.507Z,96016.47
2022-11-23T09:44:32.781Z,96010.72
2022-11-23T09:49:55.815Z,96023.19
2022-11-23T09:55:20.590Z,96018.78
2022-11-23T10:00:23.545Z,96009.50
2022-11-23T10:05:27.328Z,96007.28
2022-11-23T10:10:38.594Z,96006.94
2022-11-23T10:16:09.828Z,96003.91
2022-11-23T10:21:30.091Z,95992.94
2022-11-23T10:26:36.438Z,95984.75
2022-11-23T10:31:38.118Z,95985.25
2022-11-23T10:36:41.259Z,95980.88
2022-11-23T10:41:44.498Z,95970.50
2022-11-23T10:46:46.201Z,95975.38
2022-11-23T10:51:50.857Z,95972.94
2022-11-23T10:56:54.217Z,95960.63
2022-11-23T11:02:20.024Z,95964.09
2022-11-23T11:07:28.770Z,95958.84
2022-11-23T11:12:34.789Z,95965.59
2022-11-23T11:17:37.936Z,95964.72
2022-11-23T11:22:46.252Z,95960.69
2022-11-23T11:27:52.760Z,95951.38
2022-11-23T11:33:18.024Z,95951.53
2022-11-23T11:38:23.935Z,95950.63
2022-11-23T11:43:39.968Z,95941.31
2022-11-23T11:48:53.142Z,95925.75
2022-11-23T11:54:01.810Z,95927.88
2022-11-23T11:59:29.795Z,95925.78
2022-11-23T12:04:41.745Z,95920.25
2022-11-23T12:09:48.478Z,95916.75
2022-11-23T12:14:50.161Z,95916.22
2022-11-23T12:20:04.392Z,95909.34
2022-11-23T12:25:22.440Z,95909.13
2022-11-23T12:30:30.137Z,95899.34
2022-11-23T12:35:47.005Z,95899.75
2022-11-23T12:40:57.661Z,95890.81
2022-11-23T12:46:16.452Z,95902.03
2022-11-23T12:51:21.097Z,95907.06
2022-11-23T12:56:40.902Z,95897.88
2022-11-23T13:01:48.454Z,95900.44
2022-11-23T13:07:43.224Z,95902.38
2022-11-23T13:12:54.604Z,95891.69
2022-11-23T13:18:08.726Z,95894.97
2022-11-23T13:23:10.562Z,95897.03
2022-11-23T13:28:31.570Z,95901.66
2022-11-23T13:33:38.111Z,95902.31
2022-11-23T13:38:42.423Z,95900.75
2022-11-23T13:43:44.312Z,95897.44
2022-11-23T13:48:57.230Z,95900.81
2022-11-23T13:54:03.308Z,95898.44
2022-11-23T13:59:23.466Z,95897.41
2022-11-23T14:04:33.200Z,95895.81
2022-11-23T14:09:55.585Z,95890.41
2022-11-23T14:15:06.231Z,95883.44
2022-11-23T14:20:27.202Z,95881.13
2022-11-23T14:25:58.234Z,95872.31
2022-11-23T14:31:20.882Z,95877.91
2022-11-23T14:36:33.992Z,95878.50
2022-11-23T14:41:37.000Z,95891.16
2022-11-23T14:46:59.196Z,95890.34
2022-11-23T14:52:03.238Z,95891.25
2022-11-23T14:57:06.868Z,95891.69
2022-11-23T15:02:21.261Z,95890.16
2022-11-23T15:07:28.757Z,95896.34
2022-11-23T15:12:46.650Z,95892.59
2022-11-23T15:17:58.062Z,95883.78
2022-11-23T15:23:03.704Z,95895.59
2022-11-23T15:28:16.966Z,95895.94
2022-11-23T15:33:21.401Z,95895.69
2022-11-23T15:38:24.157Z,95901.69
2022-11-23T15:43:26.025Z,95903.94
2022-11-23T15:48:35.213Z,95913.72
2022-11-23T15:53:51.783Z,95907.22
2022-11-23T15:58:54.295Z,95909.94
2022-11-23T16:04:04.698Z,95893.13
2022-11-23T16:09:51.344Z,95882.81
2022-11-23T16:14:59.283Z,95882.03
2022-11-23T16:20:04.887Z,95894.25
2022-11-23T16:25:17.320Z,95894.56
2022-11-23T16:30:25.201Z,95898.69
2022-11-23T16:35:26.940Z,95901.44
2022-11-23T16:40:28.654Z,95905.28
2022-11-23T16:45:31.892Z,95904.75
2022-11-23T16:50:34.449Z,95897.69
2022-11-23T16:55:42.103Z,95905.31
2022-11-23T17:00:45.871Z,95898.25
2022-11-23T17:05:48.336Z,95911.84
2022-11-23T17:10:51.242Z,95907.75
2022-11-23T17:15:53.211Z,95916.69
2022-11-23T17:20:56.057Z,95922.72
2022-11-23T17:25:58.101Z,95923.53
2022-11-23T17:30:59.869Z,95917.84
2022-11-23T17:36:01.721Z,95918.66
2022-11-23T17:41:03.556Z,95921.91
2022-11-23T17:46:05.997Z,95921.91
2022-11-23T17:51:10.998Z,95928.44
2022-11-23T17:56:19.387Z,95937.66
2022-11-23T18:01:22.183Z,95946.31
2022-11-23T18:06:24.338Z,95950.88
2022-11-23T18:11:26.237Z,95949.72
2022-11-23T18:16:28.006Z,95946.97
2022-11-23T18:21:30.160Z,95956.44
2022-11-23T18:26:31.988Z,95978.88
2022-11-23T18:31:33.948Z,95978.53
2022-11-23T18:36:35.830Z,95985.69
2022-11-23T18:41:37.462Z,95978.59
2022-11-23T18:46:41.068Z,95982.28
2022-11-23T18:51:42.841Z,95982.50
2022-11-23T18:56:44.597Z,95998.75
2022-11-23T19:01:46.322Z,96010.41
2022-11-23T19:06:48.169Z,96013.00
2022-11-23T19:11:51.657Z,96016.13
2022-11-23T19:16:53.614Z,96037.50
2022-11-23T19:21:55.342Z,96044.84
2022-11-23T19:26:57.029Z,96042.66
2022-11-23T19:31:58.737Z,96048.56
2022-11-23T19:37:00.920Z,96053.56
2022-11-23T19:42:03.624Z,96060.22
2022-11-23T19:47:11.666Z,96066.53
2022-11-23T19:52:15.651Z,96075.13
2022-11-23T19:57:17.409Z,96093.72
2022-11-23T20:02:24.519Z,96096.34
2022-11-23T20:07:26.442Z,96108.69
2022-11-23T20:12:28.430Z,96136.44
2022-11-23T20:17:30.284Z,96160.34
2022-11-23T20:22:32.008Z,96175.06
2022-11-23T20:27:33.723Z,96176.72
2022-11-23T20:32:35.423Z,96180.09
2022-11-23T20:37:37.364Z,96194.28
2022-11-23T20:42:39.316Z,96200.03
2022-11-23T20:47:41.532Z,96205.75
2022-11-23T20:52:43.242Z,96208.47
2022-11-23T20:57:44.977Z,96220.47
2022-11-23T21:02:53.925Z,96226.69
2022-11-23T21:07:55.669Z,96229.16
2022-11-23T21:13:16.603Z,96245.97
2022-11-23T21:18:18.536Z,96254.03
2022-11-23T21:23:20.239Z,96256.22
2022-11-23T21:28:21.990Z,96257.31
2022-11-23T21:33:23.664Z,96255.97
2022-11-23T21:38:35.398Z,96260.13
2022-11-23T21:43:37.418Z,96247.69
2022-11-23T21:48:40.111Z,96248.50
2022-11-23T21:53:42.039Z,96253.13
2022-11-23T21:58:44.108Z,96241.16
2022-11-23T22:03:54.373Z,96246.94
2022-11-23T22:08:58.169Z,96245.59
2022-11-23T22:14:02.052Z,96246.16
2022-11-23T22:19:04.811Z,96251.63
2022-11-23T22:24:10.464Z,96250.81
2022-11-23T22:29:12.420Z,96266.28
2022-11-23T22:34:14.303Z,96260.84
2022-11-23T22:39:16.013Z,96264.66
2022-11-23T22:44:17.727Z,96257.59
2022-11-23T22:49:19.416Z,96273.38
2022-11-23T22:54:21.078Z,96274.72
2022-11-23T22:59:22.796Z,96279.31
2022-11-23T23:04:25.472Z,96290.97
2022-11-23T23:09:27.094Z,96295.59
2022-11-23T23:14:28.841Z,96306.97
2022-11-23T23:19:30.548Z,96306.97
2022-11-23T23:24:32.848Z,96313.28
2022-11-23T23:29:34.850Z,96323.63
2022-11-23T23:34:36.668Z,96331.56
2022-11-23T23:39:38.775Z,96340.06
2022-11-23T23:44:40.437Z,96347.44
2022-11-23T23:49:42.154Z,96356.72
2022-11-23T23:54:43.850Z,96365.47
2022-11-23T23:59:45.521Z,96360.34
